createdAt,value
2023-05-22T00:01:19.382Z,7.82
2023-05-22T00:03:47.013Z,7.55
2023-05-22T00:06:15.088Z,7.73
2023-05-22T00:08:42.344Z,7.95
2023-05-22T00:11:09.700Z,7.72
2023-05-22T00:13:36.928Z,7.78
2023-05-22T00:16:04.443Z,7.43
2023-05-22T00:18:31.685Z,7.83
2023-05-22T00:20:59.126Z,8.32
2023-05-22T00:23:28.328Z,8.45
2023-05-22T00:25:55.677Z,7.93
2023-05-22T00:28:22.951Z,7.65
2023-05-22T00:30:50.278Z,7.97
2023-05-22T00:33:17.698Z,7.72
2023-05-22T00:35:45.038Z,7.95
2023-05-22T00:38:32.474Z,7.75
2023-05-22T00:41:01.061Z,8.07
2023-05-22T00:43:28.722Z,8.17
2023-05-22T00:45:56.508Z,7.40
2023-05-22T00:48:24.205Z,8.20
2023-05-22T00:50:51.974Z,7.65
2023-05-22T00:53:22.578Z,7.25
2023-05-22T00:55:49.864Z,7.80
2023-05-22T00:58:17.993Z,8.20
2023-05-22T01:00:46.634Z,8.23
2023-05-22T01:03:14.223Z,7.38
2023-05-22T01:05:41.827Z,7.25
2023-05-22T01:08:09.475Z,8.00
2023-05-22T01:10:38.014Z,7.50
2023-05-22T01:13:15.010Z,8.50
2023-05-22T01:16:30.538Z,7.15
2023-05-22T01:19:35.104Z,7.80
2023-05-22T01:22:14.454Z,7.80
2023-05-22T01:25:12.226Z,8.40
2023-05-22T01:28:17.339Z,7.30
2023-05-22T01:30:53.911Z,7.40
2023-05-22T01:33:21.750Z,8.35
2023-05-22T01:35:51.637Z,8.00
2023-05-22T01:38:18.882Z,8.18
2023-05-22T01:40:46.313Z,8.50
2023-05-22T01:43:14.558Z,8.07
2023-05-22T01:45:41.832Z,7.75
2023-05-22T01:48:09.276Z,8.00
2023-05-22T01:50:36.812Z,8.10
2023-05-22T01:53:29.578Z,8.32
2023-05-22T01:56:43.412Z,8.05
2023-05-22T01:59:21.897Z,8.10
2023-05-22T02:01:51.130Z,7.27
2023-05-22T02:04:22.144Z,7.85
2023-05-22T02:06:49.690Z,8.00
2023-05-22T02:09:17.265Z,8.23
2023-05-22T02:11:45.002Z,8.10
2023-05-22T02:14:12.660Z,8.13
2023-05-22T02:16:40.131Z,8.55
2023-05-22T02:19:08.010Z,8.02
2023-05-22T02:21:36.179Z,8.25
2023-05-22T02:24:03.891Z,8.48
2023-05-22T02:26:31.554Z,8.50
2023-05-22T02:28:59.834Z,8.48
2023-05-22T02:31:27.390Z,7.70
2023-05-22T02:33:54.838Z,9.25
2023-05-22T02:36:23.084Z,8.15
2023-05-22T02:38:51.374Z,8.27
2023-05-22T02:41:18.920Z,8.57
2023-05-22T02:43:46.205Z,8.25
2023-05-22T02:46:13.831Z,8.40
2023-05-22T02:48:41.538Z,9.07
2023-05-22T02:51:09.066Z,8.60
2023-05-22T02:53:40.173Z,8.55
2023-05-22T02:56:09.034Z,8.13
2023-05-22T02:58:36.841Z,8.30
2023-05-22T03:01:06.692Z,8.05
2023-05-22T03:03:34.154Z,8.30
2023-05-22T03:06:02.214Z,8.35
2023-05-22T03:08:30.145Z,7.38
2023-05-22T03:10:59.212Z,8.00
2023-05-22T03:13:26.876Z,8.30
2023-05-22T03:15:54.659Z,8.13
2023-05-22T03:18:22.331Z,8.60
2023-05-22T03:20:50.073Z,7.78
2023-05-22T03:23:18.232Z,8.43
2023-05-22T03:25:48.838Z,8.55
2023-05-22T03:28:16.751Z,7.50
2023-05-22T03:30:44.159Z,9.02
2023-05-22T03:33:20.368Z,8.15
2023-05-22T03:35:47.912Z,7.90
2023-05-22T03:38:15.169Z,7.97
2023-05-22T03:40:42.737Z,8.23
2023-05-22T03:43:10.572Z,8.18
2023-05-22T03:45:39.026Z,8.52
2023-05-22T03:48:06.490Z,8.68
2023-05-22T03:50:34.079Z,8.88
2023-05-22T03:53:01.444Z,8.50
2023-05-22T03:55:30.945Z,8.95
2023-05-22T03:57:58.241Z,8.60
2023-05-22T04:00:26.941Z,8.07
2023-05-22T04:02:54.861Z,8.15
2023-05-22T04:05:24.690Z,7.90
2023-05-22T04:07:52.212Z,7.95
2023-05-22T04:10:22.764Z,8.18
2023-05-22T04:12:50.636Z,8.00
2023-05-22T04:15:17.883Z,7.72
2023-05-22T04:17:45.333Z,8.20
2023-05-22T04:20:13.061Z,8.10
2023-05-22T04:22:41.378Z,8.25
2023-05-22T04:25:10.437Z,7.70
2023-05-22T04:27:38.098Z,8.00
2023-05-22T04:30:07.484Z,7.83
2023-05-22T04:32:36.509Z,8.35
2023-05-22T04:35:04.017Z,7.97
2023-05-22T04:37:31.908Z,7.82
2023-05-22T04:40:03.298Z,7.88
2023-05-22T04:42:31.857Z,7.77
2023-05-22T04:44:59.217Z,7.65
2023-05-22T04:47:29.065Z,8.30
2023-05-22T04:49:57.249Z,7.65
2023-05-22T04:52:24.813Z,7.97
2023-05-22T04:54:52.516Z,7.97
2023-05-22T04:57:21.432Z,8.38
2023-05-22T04:59:52.395Z,7.82
2023-05-22T05:02:19.901Z,7.90
2023-05-22T05:04:48.530Z,7.82
2023-05-22T05:07:17.819Z,7.70
2023-05-22T05:09:45.400Z,7.22
2023-05-22T05:12:13.086Z,7.78
2023-05-22T05:14:40.743Z,7.95
2023-05-22T05:17:08.480Z,8.25
2023-05-22T05:19:37.197Z,7.67
2023-05-22T05:22:05.167Z,7.00
2023-05-22T05:24:32.910Z,7.70
2023-05-22T05:27:00.796Z,7.22
2023-05-22T05:29:28.159Z,7.38
2023-05-22T05:32:01.578Z,7.50
2023-05-22T05:34:48.076Z,7.70
2023-05-22T05:37:27.005Z,7.50
2023-05-22T05:40:02.123Z,7.93
2023-05-22T05:42:30.443Z,7.25
2023-05-22T05:44:59.627Z,7.83
2023-05-22T05:47:30.843Z,7.55
2023-05-22T05:49:59.086Z,8.27
2023-05-22T05:52:33.050Z,7.38
2023-05-22T05:55:27.104Z,8.00
2023-05-22T05:57:55.934Z,7.13
2023-05-22T06:00:35.035Z,7.72
2023-05-22T06:03:08.276Z,8.07
2023-05-22T06:05:51.786Z,7.60
2023-05-22T06:08:45.480Z,8.07
2023-05-22T06:11:17.870Z,7.32
2023-05-22T06:14:03.426Z,8.47
2023-05-22T06:16:36.984Z,7.78
2023-05-22T06:19:05.125Z,7.53
2023-05-22T06:21:36.181Z,7.63
2023-05-22T06:24:04.809Z,9.32
2023-05-22T06:26:34.050Z,8.37
2023-05-22T06:29:04.027Z,8.00
2023-05-22T06:31:41.573Z,8.57
2023-05-22T06:34:10.432Z,8.48
2023-05-22T06:36:42.572Z,7.38
2023-05-22T06:39:12.075Z,7.23
2023-05-22T06:41:58.192Z,7.18
2023-05-22T06:44:26.014Z,7.45
2023-05-22T06:46:56.316Z,7.15
2023-05-22T06:49:26.573Z,7.57
2023-05-22T06:51:56.392Z,7.90
2023-05-22T06:54:29.064Z,7.72
2023-05-22T06:56:58.324Z,7.50
2023-05-22T06:59:30.949Z,7.90
2023-05-22T07:02:10.244Z,6.97
2023-05-22T07:05:05.840Z,6.90
2023-05-22T07:07:51.435Z,7.47
2023-05-22T07:10:22.062Z,6.78
2023-05-22T07:12:50.159Z,7.25
2023-05-22T07:15:18.380Z,7.18
2023-05-22T07:17:51.189Z,7.07
2023-05-22T07:20:19.147Z,7.00
2023-05-22T07:22:59.972Z,7.45
2023-05-22T07:25:27.455Z,7.50
2023-05-22T07:27:55.959Z,7.13
2023-05-22T07:30:24.801Z,9.10
2023-05-22T07:32:52.439Z,8.20
2023-05-22T07:35:20.731Z,8.55
2023-05-22T07:37:48.676Z,7.93
2023-05-22T07:40:16.835Z,8.10
2023-05-22T07:42:44.290Z,8.57
2023-05-22T07:45:13.451Z,8.77
2023-05-22T07:47:41.048Z,8.55
2023-05-22T07:50:09.704Z,7.63
2023-05-22T07:52:41.569Z,7.75
2023-05-22T07:55:09.615Z,7.43
2023-05-22T07:57:39.963Z,7.65
2023-05-22T08:00:17.823Z,7.05
2023-05-22T08:02:45.881Z,6.68
2023-05-22T08:05:22.691Z,7.25
2023-05-22T08:08:13.778Z,6.43
2023-05-22T08:13:30.725Z,7.20
2023-05-22T08:16:01.618Z,7.28
2023-05-22T08:18:32.231Z,7.50
2023-05-22T08:21:00.861Z,7.18
2023-05-22T08:23:28.842Z,7.10
2023-05-22T08:25:57.168Z,6.78
2023-05-22T08:28:24.963Z,7.60
2023-05-22T08:30:52.897Z,7.15
2023-05-22T08:33:20.433Z,7.40
2023-05-22T08:35:48.007Z,6.97
2023-05-22T08:38:15.584Z,6.93
2023-05-22T08:40:45.900Z,7.43
2023-05-22T08:43:14.104Z,7.25
2023-05-22T08:45:44.077Z,7.72
2023-05-22T08:48:13.244Z,7.37
2023-05-22T08:50:43.657Z,7.05
2023-05-22T08:53:13.151Z,8.18
2023-05-22T08:55:40.847Z,7.35
2023-05-22T08:58:08.756Z,7.43
2023-05-22T09:00:36.132Z,7.63
2023-05-22T09:03:06.885Z,8.70
2023-05-22T09:05:34.478Z,8.27
2023-05-22T09:08:16.185Z,6.65
2023-05-22T09:10:48.061Z,6.65
2023-05-22T09:13:31.868Z,5.87
2023-05-22T09:16:09.992Z,5.88
2023-05-22T09:18:42.449Z,6.20
2023-05-22T09:21:28.287Z,6.47
2023-05-22T09:24:02.070Z,5.47
2023-05-22T09:26:29.798Z,5.93
2023-05-22T09:28:59.513Z,5.50
2023-05-22T09:31:30.481Z,5.10
2023-05-22T09:33:59.035Z,4.75
2023-05-22T09:36:35.737Z,5.10
2023-05-22T09:39:04.580Z,5.10
2023-05-22T09:41:36.933Z,5.25
2023-05-22T09:44:12.968Z,5.40
2023-05-22T09:46:48.189Z,4.75
2023-05-22T09:49:17.291Z,4.45
2023-05-22T09:51:48.029Z,4.30
2023-05-22T09:54:16.196Z,4.75
2023-05-22T09:56:46.296Z,5.32
2023-05-22T09:59:18.305Z,4.82
2023-05-22T10:01:48.124Z,4.90
2023-05-22T10:04:16.039Z,5.13
2023-05-22T10:06:43.726Z,5.00
2023-05-22T10:09:15.853Z,5.32
2023-05-22T10:11:45.327Z,5.07
2023-05-22T10:14:12.774Z,4.95
2023-05-22T10:16:41.621Z,4.90
2023-05-22T10:19:09.216Z,5.00
2023-05-22T10:21:37.130Z,4.72
2023-05-22T10:24:04.833Z,5.32
2023-05-22T10:26:32.439Z,4.63
2023-05-22T10:29:04.048Z,4.80
2023-05-22T10:31:45.706Z,4.80
2023-05-22T10:34:40.515Z,4.32
2023-05-22T10:37:17.400Z,4.18
2023-05-22T10:40:09.494Z,4.90
2023-05-22T10:42:40.407Z,5.13
2023-05-22T10:45:08.511Z,4.70
2023-05-22T10:47:36.515Z,4.90
2023-05-22T10:50:05.493Z,4.70
2023-05-22T10:52:33.122Z,5.28
2023-05-22T10:55:01.733Z,5.30
2023-05-22T10:57:33.649Z,4.57
2023-05-22T11:00:07.987Z,4.57
2023-05-22T11:02:41.251Z,4.88
2023-05-22T11:05:22.061Z,5.10
2023-05-22T11:07:49.792Z,4.70
2023-05-22T11:10:27.409Z,5.00
2023-05-22T11:13:11.668Z,5.20
2023-05-22T11:15:43.908Z,4.50
2023-05-22T11:18:11.453Z,5.38
2023-05-22T11:20:40.255Z,5.20
2023-05-22T11:23:09.508Z,5.30
2023-05-22T11:25:38.272Z,4.90
2023-05-22T11:28:06.284Z,5.43
2023-05-22T11:30:34.420Z,4.60
2023-05-22T11:33:03.546Z,4.60
2023-05-22T11:35:31.384Z,4.47
2023-05-22T11:37:59.259Z,5.33
2023-05-22T11:40:29.599Z,5.10
2023-05-22T11:42:57.570Z,5.55
2023-05-22T11:45:25.961Z,5.10
2023-05-22T11:47:53.601Z,5.30
2023-05-22T11:50:33.328Z,5.10
2023-05-22T11:53:08.449Z,4.90
2023-05-22T11:55:36.208Z,4.90
2023-05-22T11:58:04.068Z,5.22
2023-05-22T12:00:31.795Z,5.18
2023-05-22T12:02:59.860Z,5.50
2023-05-22T12:05:27.526Z,5.05
2023-05-22T12:07:55.032Z,5.20
2023-05-22T12:10:22.328Z,5.07
2023-05-22T12:12:50.092Z,4.85
2023-05-22T12:15:21.464Z,4.30
2023-05-22T12:17:49.122Z,5.30
2023-05-22T12:20:16.437Z,4.95
2023-05-22T12:22:44.209Z,4.75
2023-05-22T12:25:16.871Z,5.15
2023-05-22T12:27:45.749Z,4.30
2023-05-22T12:30:14.325Z,4.43
2023-05-22T12:32:43.535Z,4.50
2023-05-22T12:35:17.973Z,4.00
2023-05-22T12:37:49.977Z,4.65
2023-05-22T12:40:17.379Z,4.40
2023-05-22T12:42:45.224Z,5.10
2023-05-22T12:45:13.542Z,4.55
2023-05-22T12:47:40.943Z,5.00
2023-05-22T12:50:09.022Z,4.72
2023-05-22T12:52:36.484Z,4.50
2023-05-22T12:55:04.723Z,4.53
2023-05-22T12:57:31.960Z,4.68
2023-05-22T12:59:59.366Z,4.57
2023-05-22T13:02:26.929Z,4.47
2023-05-22T13:04:54.557Z,4.75
2023-05-22T13:07:22.311Z,4.47
2023-05-22T13:09:49.697Z,4.50
2023-05-22T13:12:17.140Z,4.90
2023-05-22T13:14:44.640Z,4.75
2023-05-22T13:17:12.049Z,4.63
2023-05-22T13:19:39.559Z,4.70
2023-05-22T13:22:07.796Z,4.57
2023-05-22T13:24:35.236Z,4.75
2023-05-22T13:27:02.571Z,5.00
2023-05-22T13:29:29.993Z,4.88
2023-05-22T13:31:57.369Z,4.30
2023-05-22T13:34:25.034Z,4.43
2023-05-22T13:36:52.523Z,4.30
2023-05-22T13:39:19.844Z,4.85
2023-05-22T13:41:47.383Z,4.70
2023-05-22T13:44:14.760Z,4.27
2023-05-22T13:46:42.173Z,4.40
2023-05-22T13:49:09.742Z,4.75
2023-05-22T13:51:38.051Z,4.45
2023-05-22T13:54:05.513Z,5.00
2023-05-22T13:56:32.821Z,4.47
2023-05-22T13:59:00.213Z,4.30
2023-05-22T14:01:27.731Z,4.60
2023-05-22T14:03:55.198Z,4.68
2023-05-22T14:06:22.624Z,4.55
2023-05-22T14:08:50.106Z,4.47
2023-05-22T14:11:17.349Z,4.53
2023-05-22T14:13:44.708Z,4.32
2023-05-22T14:16:12.097Z,4.78
2023-05-22T14:18:39.472Z,4.65
2023-05-22T14:21:06.824Z,4.93
2023-05-22T14:23:34.142Z,4.68
2023-05-22T14:26:01.493Z,4.40
2023-05-22T14:28:28.810Z,4.57
2023-05-22T14:30:56.357Z,4.40
2023-05-22T14:33:23.704Z,4.87
2023-05-22T14:35:51.770Z,4.65
2023-05-22T14:38:19.145Z,4.72
2023-05-22T14:40:46.633Z,4.47
2023-05-22T14:43:13.929Z,4.95
2023-05-22T14:45:41.355Z,4.63
2023-05-22T14:48:11.058Z,4.72
2023-05-22T14:50:38.586Z,4.50
2023-05-22T14:53:05.954Z,4.10
2023-05-22T14:55:33.324Z,4.00
2023-05-22T14:58:01.034Z,4.00
2023-05-22T15:00:28.791Z,3.88
2023-05-22T15:02:56.320Z,3.95
2023-05-22T15:05:24.027Z,3.80
2023-05-22T15:07:51.704Z,3.75
2023-05-22T15:10:19.982Z,4.10
2023-05-22T15:12:47.482Z,3.63
2023-05-22T15:15:14.886Z,4.00
2023-05-22T15:17:43.006Z,3.72
2023-05-22T15:20:11.216Z,3.90
2023-05-22T15:22:39.411Z,3.67
2023-05-22T15:25:11.979Z,4.13
2023-05-22T15:27:39.674Z,4.00
2023-05-22T15:30:09.892Z,3.97
2023-05-22T15:32:37.612Z,3.58
2023-05-22T15:35:06.426Z,3.80
2023-05-22T15:37:34.267Z,4.00
2023-05-22T15:40:02.136Z,3.65
2023-05-22T15:42:30.052Z,3.75
2023-05-22T15:44:59.607Z,3.95
2023-05-22T15:47:27.088Z,3.73
2023-05-22T15:49:54.472Z,3.75
2023-05-22T15:52:24.400Z,3.85
2023-05-22T15:54:51.883Z,3.88
2023-05-22T15:57:19.264Z,4.05
2023-05-22T15:59:51.083Z,3.80
2023-05-22T16:02:18.906Z,4.30
2023-05-22T16:04:46.307Z,4.75
2023-05-22T16:07:13.774Z,4.32
2023-05-22T16:09:43.429Z,3.65
2023-05-22T16:12:10.782Z,4.10
2023-05-22T16:14:39.886Z,4.10
2023-05-22T16:17:07.408Z,3.80
2023-05-22T16:19:34.907Z,4.07
2023-05-22T16:22:03.050Z,3.95
2023-05-22T16:24:30.398Z,3.60
2023-05-22T16:26:59.326Z,3.97
2023-05-22T16:29:26.737Z,3.60
2023-05-22T16:31:54.300Z,3.83
2023-05-22T16:34:21.808Z,4.25
2023-05-22T16:36:49.111Z,4.20
2023-05-22T16:39:16.438Z,4.38
2023-05-22T16:41:43.914Z,4.75
2023-05-22T16:44:11.139Z,4.55
2023-05-22T16:46:38.581Z,4.50
2023-05-22T16:49:05.889Z,5.63
2023-05-22T16:51:33.406Z,4.72
2023-05-22T16:54:00.675Z,4.55
2023-05-22T16:56:28.289Z,4.18
2023-05-22T16:58:55.617Z,4.70
2023-05-22T17:01:23.576Z,4.27
2023-05-22T17:03:50.936Z,4.70
2023-05-22T17:06:20.815Z,4.50
2023-05-22T17:08:48.575Z,4.60
2023-05-22T17:11:15.904Z,4.50
2023-05-22T17:13:43.281Z,5.97
2023-05-22T17:16:10.821Z,4.50
2023-05-22T17:18:38.235Z,4.47
2023-05-22T17:21:09.230Z,3.92
2023-05-22T17:23:37.452Z,4.05
2023-05-22T17:26:04.917Z,4.50
2023-05-22T17:28:32.543Z,4.07
2023-05-22T17:30:59.912Z,4.55
2023-05-22T17:33:27.253Z,4.20
2023-05-22T17:35:54.523Z,4.53
2023-05-22T17:38:21.960Z,4.40
2023-05-22T17:40:49.540Z,4.68
2023-05-22T17:43:19.091Z,4.68
2023-05-22T17:45:50.114Z,4.40
2023-05-22T17:48:23.494Z,4.20
2023-05-22T17:50:52.121Z,4.30
2023-05-22T17:53:20.875Z,4.72
2023-05-22T17:55:49.206Z,4.70
2023-05-22T17:58:17.002Z,4.38
2023-05-22T18:00:45.891Z,4.72
2023-05-22T18:03:13.556Z,4.40
2023-05-22T18:05:41.192Z,4.63
2023-05-22T18:08:08.590Z,4.40
2023-05-22T18:10:35.914Z,4.50
2023-05-22T18:13:03.284Z,4.80
2023-05-22T18:15:32.944Z,4.43
2023-05-22T18:18:00.453Z,4.90
2023-05-22T18:20:27.812Z,5.20
2023-05-22T18:22:55.115Z,4.75
2023-05-22T18:25:22.715Z,5.15
2023-05-22T18:27:50.167Z,4.93
2023-05-22T18:30:18.462Z,5.57
2023-05-22T18:32:46.137Z,5.25
2023-05-22T18:35:13.761Z,5.32
2023-05-22T18:37:41.539Z,5.30
2023-05-22T18:40:10.933Z,5.33
2023-05-22T18:42:38.336Z,6.32
2023-05-22T18:45:06.628Z,5.95
2023-05-22T18:47:34.041Z,5.68
2023-05-22T18:50:01.442Z,5.65
2023-05-22T18:52:28.861Z,5.77
2023-05-22T18:54:56.150Z,5.63
2023-05-22T18:57:23.571Z,5.78
2023-05-22T18:59:51.037Z,6.70
2023-05-22T19:02:21.403Z,7.07
2023-05-22T19:04:50.037Z,5.57
2023-05-22T19:07:17.361Z,5.65
2023-05-22T19:09:44.845Z,5.72
2023-05-22T19:12:12.099Z,6.05
2023-05-22T19:14:39.418Z,5.75
2023-05-22T19:17:06.761Z,5.80
2023-05-22T19:19:34.249Z,5.82
2023-05-22T19:22:01.552Z,6.38
2023-05-22T19:24:28.960Z,6.13
2023-05-22T19:26:56.393Z,6.25
2023-05-22T19:29:23.739Z,6.33
2023-05-22T19:31:51.080Z,6.60
2023-05-22T19:34:18.402Z,6.38
2023-05-22T19:36:45.964Z,7.15
2023-05-22T19:39:13.306Z,6.05
2023-05-22T19:41:40.727Z,6.37
2023-05-22T19:44:08.076Z,6.15
2023-05-22T19:46:35.523Z,6.13
2023-05-22T19:49:02.999Z,6.95
2023-05-22T19:51:31.089Z,6.95
2023-05-22T19:53:59.475Z,8.07
2023-05-22T19:56:27.233Z,8.93
2023-05-22T19:58:54.584Z,8.20
2023-05-22T20:01:22.254Z,7.78
2023-05-22T20:03:49.699Z,8.40
2023-05-22T20:06:17.086Z,9.00
2023-05-22T20:08:45.759Z,7.55
2023-05-22T20:11:12.996Z,7.63
2023-05-22T20:13:40.289Z,7.53
2023-05-22T20:16:11.999Z,8.20
2023-05-22T20:18:41.170Z,7.50
2023-05-22T20:21:08.637Z,7.70
2023-05-22T20:23:36.093Z,6.35
2023-05-22T20:26:03.396Z,7.40
2023-05-22T20:28:30.857Z,6.40
2023-05-22T20:30:58.180Z,6.93
2023-05-22T20:33:25.478Z,6.55
2023-05-22T20:35:53.414Z,6.07
2023-05-22T20:38:20.826Z,6.38
2023-05-22T20:40:48.339Z,5.97
2023-05-22T20:43:16.110Z,6.03
2023-05-22T20:45:45.682Z,6.03
2023-05-22T20:48:13.818Z,6.65
2023-05-22T20:50:42.123Z,6.05
2023-05-22T20:53:09.500Z,6.60
2023-05-22T20:55:37.159Z,6.50
2023-05-22T20:58:04.605Z,6.30
2023-05-22T21:00:31.849Z,6.43
2023-05-22T21:03:01.207Z,6.28
2023-05-22T21:05:28.686Z,6.53
2023-05-22T21:07:56.064Z,6.33
2023-05-22T21:10:23.523Z,6.90
2023-05-22T21:12:50.842Z,6.60
2023-05-22T21:15:18.306Z,8.07
2023-05-22T21:17:45.585Z,5.90
2023-05-22T21:20:12.983Z,6.70
2023-05-22T21:22:40.275Z,6.47
2023-05-22T21:25:08.392Z,6.28
2023-05-22T21:27:35.642Z,6.47
2023-05-22T21:30:03.020Z,6.30
2023-05-22T21:32:30.316Z,6.27
2023-05-22T21:34:57.736Z,6.35
2023-05-22T21:37:25.725Z,6.18
2023-05-22T21:39:53.034Z,6.38
2023-05-22T21:42:21.384Z,6.20
2023-05-22T21:44:48.765Z,6.20
2023-05-22T21:47:16.130Z,6.72
2023-05-22T21:49:43.460Z,7.30
2023-05-22T21:52:10.715Z,6.60
2023-05-22T21:54:38.089Z,6.70
2023-05-22T21:57:05.572Z,6.30
2023-05-22T21:59:32.954Z,6.53
2023-05-22T22:02:00.353Z,6.80
2023-05-22T22:04:27.746Z,6.40
2023-05-22T22:06:55.017Z,6.25
2023-05-22T22:09:22.391Z,6.43
2023-05-22T22:11:49.795Z,6.65
2023-05-22T22:14:17.206Z,6.40
2023-05-22T22:16:45.482Z,6.43
2023-05-22T22:19:12.952Z,6.43
2023-05-22T22:21:40.452Z,6.97
2023-05-22T22:24:07.900Z,5.97
2023-05-22T22:26:35.626Z,6.85
2023-05-22T22:29:02.955Z,6.32
2023-05-22T22:31:30.219Z,6.65
2023-05-22T22:33:57.601Z,6.13
2023-05-22T22:36:24.836Z,7.55
2023-05-22T22:38:52.176Z,6.63
2023-05-22T22:41:19.507Z,6.97
2023-05-22T22:43:46.868Z,6.55
2023-05-22T22:46:14.446Z,6.40
2023-05-22T22:48:41.830Z,6.30
2023-05-22T22:51:09.723Z,6.82
2023-05-22T22:53:37.249Z,6.70
2023-05-22T22:56:04.729Z,6.72
2023-05-22T22:58:32.041Z,6.50
2023-05-22T23:00:59.421Z,6.95
2023-05-22T23:03:27.320Z,6.78
2023-05-22T23:05:54.640Z,6.40
2023-05-22T23:08:22.697Z,7.15
2023-05-22T23:10:49.973Z,6.50
2023-05-22T23:13:17.317Z,6.80
2023-05-22T23:15:44.742Z,6.57
2023-05-22T23:18:14.055Z,6.32
2023-05-22T23:20:41.428Z,6.38
2023-05-22T23:23:08.790Z,6.60
2023-05-22T23:25:36.015Z,7.10
2023-05-22T23:28:03.342Z,7.35
2023-05-22T23:30:30.667Z,6.75
2023-05-22T23:32:58.125Z,6.45
2023-05-22T23:35:25.438Z,6.97
2023-05-22T23:37:52.774Z,6.30
2023-05-22T23:40:20.285Z,6.45
2023-05-22T23:42:48.555Z,6.25
2023-05-22T23:45:15.887Z,6.40
2023-05-22T23:47:43.199Z,6.37
2023-05-22T23:50:10.896Z,6.63
2023-05-22T23:52:38.408Z,6.88
2023-05-22T23:55:06.738Z,6.28
2023-05-22T23:57:34.018Z,6.63
